Time;durP1;ratioP1;P1;durP2;ratioP2;P2;SDS_P1;SDS_P2;PMS_P1;PMS_P2;Temp;Humidity;BMP_temperature;BMP_pressure;BME280_temperature;BME280_humidity;BME280_pressure;Samples;Min_cycle;Max_cycle;Signal;HPM_P1;HPM_P2
2021/12/18 00:01:27;;;;;;;20.23;9.80;;;;;;;15.56;100.00;103920.22;5077392;28;20137;-50
2021/12/18 00:03:53;;;;;;;19.60;9.20;;;;;;;15.52;100.00;103918.84;5095255;28;20029;-48
2021/12/18 00:06:20;;;;;;;17.13;8.57;;;;;;;15.52;100.00;103917.00;5077380;28;20038;-48
2021/12/18 00:08:46;;;;;;;;;;;;;;;15.49;100.00;103920.03;5077516;28;20036;-52
2021/12/18 00:11:12;;;;;;;14.97;7.10;;;;;;;15.57;100.00;103912.00;5076922;28;19961;-51
2021/12/18 00:13:38;;;;;;;16.42;7.90;;;;;;;15.55;100.00;103915.84;5095114;28;20024;-51
2021/12/18 00:16:05;;;;;;;19.20;7.95;;;;;;;15.44;100.00;103920.47;5094992;28;20059;-49
2021/12/18 00:18:31;;;;;;;14.15;7.38;;;;;;;15.49;100.00;103915.47;5077246;28;20410;-54
2021/12/18 00:21:00;;;;;;;15.70;7.60;;;;;;;15.54;100.00;103917.72;5095363;28;20353;-51
2021/12/18 00:23:26;;;;;;;16.80;7.87;;;;;;;15.53;100.00;103907.06;5094604;28;20449;-49
2021/12/18 00:25:52;;;;;;;20.05;8.57;;;;;;;15.55;100.00;103908.63;5094877;28;20641;-49
2021/12/18 00:28:17;;;;;;;19.85;8.52;;;;;;;15.42;100.00;103905.44;5076632;28;20024;-47
2021/12/18 00:30:43;;;;;;;18.02;8.27;;;;;;;15.51;100.00;103903.66;5059964;28;20032;-52
2021/12/18 00:33:09;;;;;;;17.15;8.27;;;;;;;15.53;100.00;103897.13;5076298;28;20063;-51
2021/12/18 00:35:35;;;;;;;15.10;8.02;;;;;;;15.54;100.00;103895.25;5094700;28;20036;-48
2021/12/18 00:38:03;;;;;;;15.90;8.68;;;;;;;15.53;100.00;103894.44;5076869;28;20032;-52
2021/12/18 00:40:42;;;;;;;16.73;7.83;;;;;;;15.53;100.00;103889.03;5094451;28;20024;-51
2021/12/18 00:43:22;;;;;;;16.60;8.17;;;;;;;15.55;100.00;103887.03;5076404;28;20276;-52
2021/12/18 00:45:47;;;;;;;13.97;7.20;;;;;;;15.51;100.00;103901.84;5094415;28;20261;-50
2021/12/18 00:48:13;;;;;;;12.88;6.63;;;;;;;15.55;100.00;103887.03;5094093;28;20260;-53
2021/12/18 00:50:38;;;;;;;13.27;7.13;;;;;;;15.60;100.00;103890.09;5075740;28;20084;-55
2021/12/18 00:53:04;;;;;;;15.93;7.90;;;;;;;15.53;100.00;103893.56;5076426;28;20102;-57
2021/12/18 00:55:29;;;;;;;14.47;7.37;;;;;;;15.51;100.00;103884.78;5094702;28;20034;-53
2021/12/18 00:57:55;;;;;;;19.35;7.43;;;;;;;15.51;100.00;103879.41;5094089;28;20033;-51
2021/12/18 01:00:24;;;;;;;15.50;8.17;;;;;;;15.49;100.00;103884.97;5076036;28;20103;-51
2021/12/18 01:02:53;;;;;;;14.87;7.30;;;;;;;15.33;100.00;103888.31;5094083;28;20115;-51
2021/12/18 01:05:19;;;;;;;15.40;6.90;;;;;;;15.41;100.00;103882.16;5094067;28;20256;-52
2021/12/18 01:07:45;;;;;;;;;;;;;;;15.48;100.00;103881.41;5094255;28;20265;-54
2021/12/18 01:10:38;;;;;;;15.43;7.17;;;;;;;15.54;100.00;103879.09;5075898;28;20371;-49
2021/12/18 01:13:07;;;;;;;14.20;7.53;;;;;;;15.53;100.00;103878.25;5075686;28;20180;-54
2021/12/18 01:15:37;;;;;;;17.63;7.60;;;;;;;15.51;100.00;103880.25;5093715;28;20268;-53
2021/12/18 01:23:34;;;;;;;14.03;7.97;;;;;;;15.51;100.00;103879.41;5094667;28;20609;-53
2021/12/18 01:26:00;;;;;;;19.60;9.00;;;;;;;15.54;100.00;103882.66;5093718;28;20260;-53
2021/12/18 01:28:25;;;;;;;16.83;8.15;;;;;;;15.48;100.00;103885.97;5093500;28;20652;-54
2021/12/18 01:30:52;;;;;;;19.53;9.17;;;;;;;15.47;100.00;103874.31;5093514;28;20500;-49
2021/12/18 01:33:17;;;;;;;;;;;;;;;15.52;100.00;103876.56;5075990;28;20445;-47
2021/12/18 01:35:43;;;;;;;16.57;7.50;;;;;;;15.52;100.00;103871.16;5093540;28;19947;-52
2021/12/18 01:38:12;;;;;;;15.43;7.80;;;;;;;15.53;100.00;103875.56;5093501;28;20040;-51
2021/12/18 01:40:39;;;;;;;16.17;7.77;;;;;;;15.52;100.00;103876.56;5093427;28;20473;-52
2021/12/18 01:53:48;;;;;;;18.10;7.80;;;;;;;15.56;100.00;103891.44;5093775;28;20352;-52
2021/12/18 01:56:14;;;;;;;16.50;6.93;;;;;;;15.53;100.00;103891.75;5093912;28;20256;-47
2021/12/18 01:58:40;;;;;;;13.98;7.55;;;;;;;15.52;100.00;103892.75;5075105;28;20749;-52
2021/12/18 02:01:06;;;;;;;16.15;7.30;;;;;;;15.64;100.00;103879.88;5092977;28;20041;-47
2021/12/18 02:03:32;;;;;;;18.50;7.95;;;;;;;15.56;100.00;103882.47;5093090;28;20032;-48
2021/12/18 02:05:58;;;;;;;15.27;7.65;;;;;;;15.60;100.00;103882.00;5093194;28;20032;-48
2021/12/18 02:08:27;;;;;;;14.27;7.07;;;;;;;15.71;100.00;103890.88;5093251;28;20388;-51
2021/12/18 02:11:39;;;;;;;15.37;7.67;;;;;;;15.58;100.00;103875.94;5093493;28;20024;-49
2021/12/18 02:21:53;;;;;;;12.93;7.43;;;;;;;15.64;100.00;103879.88;5034380;28;20595;-49
2021/12/18 02:24:22;;;;;;;16.73;7.20;;;;;;;15.62;100.00;103881.88;5093030;28;20362;-49
2021/12/18 02:26:48;;;;;;;13.70;7.60;;;;;;;15.67;100.00;103882.25;5075294;28;20032;-54
2021/12/18 02:29:15;;;;;;;15.93;7.20;;;;;;;15.70;100.00;103875.72;5093362;28;20586;-48
2021/12/18 02:31:41;;;;;;;17.00;7.57;;;;;;;15.67;100.00;103871.47;5092920;28;20277;-53
2021/12/18 02:34:16;;;;;;;18.75;8.15;;;;;;;15.63;100.00;103873.59;5092920;28;20272;-50
2021/12/18 02:36:47;;;;;;;15.13;7.50;;;;;;;15.58;100.00;103870.53;5092980;28;20032;-52
2021/12/18 02:39:37;;;;;;;13.13;6.57;;;;;;;15.48;100.00;103869.78;5075253;28;20753;-52
2021/12/18 02:42:22;;;;;;;15.70;7.20;;;;;;;15.38;100.00;103874.38;5093466;28;20269;-52
2021/12/18 02:44:49;;;;;;;13.57;7.07;;;;;;;15.33;100.00;103859.53;5074812;28;20276;-51
2021/12/18 02:47:16;;;;;;;13.87;6.57;;;;;;;15.27;100.00;103870.06;5092579;28;20798;-51
2021/12/18 02:49:48;;;;;;;15.07;6.80;;;;;;;15.25;100.00;103867.53;5074537;28;20276;-51
2021/12/18 02:52:14;;;;;;;12.30;6.57;;;;;;;15.36;100.00;103860.22;5075326;28;20039;-51
2021/12/18 02:54:41;;;;;;;15.00;6.85;;;;;;;15.25;100.00;103859.44;5092818;28;20260;-50
2021/12/18 02:57:07;;;;;;;13.50;7.27;;;;;;;15.30;100.00;103867.06;5092910;28;20035;-52
2021/12/18 02:59:50;;;;;;;12.40;6.13;;;;;;;15.15;100.00;103856.81;5057667;28;20273;-50
2021/12/18 03:02:18;;;;;;;14.07;6.77;;;;;;;15.20;100.00;103862.59;5075043;28;20095;-50
2021/12/18 03:04:48;;;;;;;13.20;6.90;;;;;;;15.28;100.00;103850.19;5076486;28;20253;-48
2021/12/18 03:07:16;;;;;;;12.97;6.70;;;;;;;15.36;100.00;103855.69;5096099;28;20275;-53
2021/12/18 03:22:13;;;;;;;19.00;7.97;;;;;;;15.29;100.00;103847.34;5096588;28;20356;-53
2021/12/18 03:23:37;;;;;;;14.97;7.13;;;;;;;15.37;100.00;103853.81;5077819;28;20300;-53
2021/12/18 03:26:03;;;;;;;17.20;7.43;;;;;;;15.39;100.00;103854.50;5096555;28;20348;-51
2021/12/18 03:28:29;;;;;;;15.13;6.82;;;;;;;15.48;100.00;103845.50;5095943;28;20710;-52
2021/12/18 03:30:55;;;;;;;13.37;6.43;;;;;;;15.46;100.00;103845.66;5095766;28;20032;-50
2021/12/18 03:33:22;;;;;;;14.40;7.00;;;;;;;15.42;100.00;103848.81;5095581;28;20300;-50
2021/12/18 03:35:48;;;;;;;13.97;6.47;;;;;;;15.25;100.00;103854.06;5095549;28;20107;-52
2021/12/18 03:38:14;;;;;;;13.88;7.25;;;;;;;15.32;100.00;103844.34;5077552;28;20719;-59
2021/12/18 03:40:40;;;;;;;13.05;6.13;;;;;;;15.18;100.00;103847.56;5095500;28;20153;-48
2021/12/18 03:43:05;;;;;;;13.50;5.93;;;;;;;15.27;100.00;103846.66;5095909;28;20477;-52
2021/12/18 03:45:31;;;;;;;11.93;6.23;;;;;;;15.25;100.00;103843.28;5095920;28;20381;-47
2021/12/18 03:47:56;;;;;;;15.57;6.10;;;;;;;15.30;100.00;103846.34;5095400;28;20477;-47
2021/12/18 03:50:22;;;;;;;16.55;7.72;;;;;;;15.26;100.00;103847.66;5077413;28;20658;-49
2021/12/18 03:52:49;;;;;;;15.85;7.45;;;;;;;15.15;100.00;103855.97;5095279;28;20477;-51
2021/12/18 03:55:15;;;;;;;16.93;7.40;;;;;;;15.27;100.00;103851.19;5077782;28;20048;-52
2021/12/18 03:57:41;;;;;;;18.83;8.30;;;;;;;15.36;100.00;103849.44;5077125;28;20328;-52
2021/12/18 04:00:10;;;;;;;17.20;7.80;;;;;;;15.37;100.00;103845.72;5095162;28;20367;-53
2021/12/18 04:02:39;;;;;;;15.83;6.80;;;;;;;15.25;100.00;103847.81;5095356;28;20124;-49
2021/12/18 04:05:04;;;;;;;;;;;;;;;15.19;100.00;103846.56;5095334;28;20261;-49
2021/12/18 04:07:30;;;;;;;13.70;6.43;;;;;;;15.26;100.00;103841.41;5095166;28;19907;-53
2021/12/18 04:09:55;;;;;;;16.87;7.53;;;;;;;15.32;100.00;103846.19;5060542;28;20130;-48
2021/12/18 04:12:20;;;;;;;15.40;7.20;;;;;;;15.31;100.00;103844.50;5076841;28;20035;-52
2021/12/18 04:14:46;;;;;;;13.47;6.43;;;;;;;15.22;100.00;103835.47;5094423;28;20034;-52
2021/12/18 04:17:11;;;;;;;18.33;7.87;;;;;;;15.31;100.00;103841.78;5095271;28;20021;-48
2021/12/18 04:19:37;;;;;;;13.20;6.38;;;;;;;15.29;100.00;103839.25;5094677;28;20064;-52
2021/12/18 04:22:03;;;;;;;15.77;7.03;;;;;;;15.31;100.00;103839.97;5095408;28;20471;-54
2021/12/18 04:24:29;;;;;;;18.80;6.35;;;;;;;15.22;100.00;103845.41;5094915;28;20110;-51
2021/12/18 04:26:55;;;;;;;13.35;6.32;;;;;;;15.27;100.00;103852.06;5076976;28;20059;-50
2021/12/18 04:29:21;;;;;;;15.32;6.28;;;;;;;15.24;100.00;103846.97;5094629;28;20036;-53
2021/12/18 04:31:46;;;;;;;12.00;5.60;;;;;;;15.22;100.00;103846.25;5094434;28;20046;-51
2021/12/18 04:34:12;;;;;;;10.57;5.83;;;;;;;15.22;100.00;103857.03;5094434;28;20020;-51
2021/12/18 04:36:37;;;;;;;11.83;5.87;;;;;;;15.17;100.00;103856.66;5094314;28;20061;-51
2021/12/18 04:39:04;;;;;;;11.63;5.20;;;;;;;15.26;100.00;103862.97;5094291;28;20078;-52
2021/12/18 04:41:39;;;;;;;;;;;;;;;15.10;100.00;103859.09;5060631;28;20044;-52
2021/12/18 04:44:05;;;;;;;12.20;5.60;;;;;;;15.20;100.00;103859.03;5076770;28;19945;-51
2021/12/18 04:46:32;;;;;;;11.15;5.43;;;;;;;15.27;100.00;103851.19;5075939;28;20440;-49
2021/12/18 04:48:57;;;;;;;14.77;6.20;;;;;;;15.03;100.00;103856.19;5076519;28;20081;-52
2021/12/18 04:51:23;;;;;;;14.87;6.30;;;;;;;15.12;100.00;103850.88;5094886;28;20445;-54
2021/12/18 04:53:48;;;;;;;13.27;6.60;;;;;;;15.16;100.00;103860.34;5094303;28;20036;-50
2021/12/18 04:56:14;;;;;;;15.33;7.10;;;;;;;15.12;100.00;103857.13;5094075;28;20484;-53
2021/12/18 04:58:39;;;;;;;18.43;7.83;;;;;;;15.16;100.00;103863.91;5076079;28;20392;-52
2021/12/18 05:01:05;;;;;;;18.73;7.77;;;;;;;15.22;100.00;103870.50;5093996;28;20271;-48
2021/12/18 05:03:31;;;;;;;16.40;7.07;;;;;;;15.19;100.00;103865.44;5093929;28;20523;-53
2021/12/18 05:05:59;;;;;;;20.20;8.38;;;;;;;15.20;100.00;103873.38;5094286;28;20287;-50
2021/12/18 05:08:25;;;;;;;17.80;6.73;;;;;;;15.18;100.00;103870.00;5093729;28;20032;-51
2021/12/18 05:10:51;;;;;;;15.35;6.90;;;;;;;15.15;100.00;103873.00;5093610;28;20271;-53
2021/12/18 05:13:16;;;;;;;15.90;6.40;;;;;;;15.10;100.00;103866.34;5093574;28;20024;-53
2021/12/18 05:15:42;;;;;;;16.37;5.67;;;;;;;15.13;100.00;103874.13;5093941;28;20307;-50
2021/12/18 05:18:07;;;;;;;13.20;6.30;;;;;;;15.14;100.00;103874.00;5075987;28;20737;-54
2021/12/18 05:20:33;;;;;;;15.77;6.93;;;;;;;15.18;100.00;103874.50;5058905;28;20032;-54
2021/12/18 05:22:58;;;;;;;15.13;5.37;;;;;;;15.05;100.00;103873.06;5093928;28;20110;-51
2021/12/18 05:25:24;;;;;;;16.10;5.97;;;;;;;14.99;100.00;103872.81;5075731;28;20040;-53
2021/12/18 05:27:49;;;;;;;12.93;5.27;;;;;;;14.90;100.00;103867.31;5075344;28;20253;-52
2021/12/18 05:30:15;;;;;;;15.48;6.28;;;;;;;15.05;100.00;103867.66;5093539;28;20097;-55
2021/12/18 05:32:40;;;;;;;15.43;7.28;;;;;;;15.10;100.00;103869.88;5093719;28;20044;-54
2021/12/18 05:35:07;;;;;;;15.35;6.30;;;;;;;15.16;100.00;103863.03;5075974;28;20036;-52
2021/12/18 05:40:16;;;;;;;16.43;6.23;;;;;;;15.19;100.00;103866.28;5093719;28;20081;-50
2021/12/18 05:42:41;;;;;;;13.97;6.00;;;;;;;15.17;100.00;103856.66;5093316;28;20261;-51
2021/12/18 05:45:08;;;;;;;17.57;6.97;;;;;;;15.17;100.00;103853.94;5075409;28;20272;-49
2021/12/18 05:47:34;;;;;;;17.50;6.43;;;;;;;15.16;100.00;103860.34;5075687;28;20040;-53
2021/12/18 05:49:59;;;;;;;20.63;7.38;;;;;;;15.14;100.00;103863.22;5093468;28;20031;-49
2021/12/18 05:52:25;;;;;;;16.08;6.80;;;;;;;15.15;100.00;103859.50;5075167;28;20408;-49
2021/12/18 05:54:51;;;;;;;18.05;7.70;;;;;;;15.14;100.00;103862.34;5093770;28;20165;-51
2021/12/18 05:57:17;;;;;;;13.95;6.28;;;;;;;15.18;100.00;103858.34;5093057;28;20487;-51
2021/12/18 05:59:43;;;;;;;18.03;6.13;;;;;;;15.15;100.00;103855.97;5093446;28;20115;-48
2021/12/18 06:02:08;;;;;;;16.20;6.13;;;;;;;15.16;100.00;103855.81;5093383;28;20500;-49
2021/12/18 06:04:34;;;;;;;13.47;6.70;;;;;;;15.12;100.00;103843.66;5093578;28;20024;-51
2021/12/18 06:07:06;;;;;;;16.85;5.63;;;;;;;15.10;100.00;103842.94;5058495;28;20189;-50
2021/12/18 06:09:35;;;;;;;13.80;5.20;;;;;;;15.08;100.00;103846.78;5075532;28;20052;-48
2021/12/18 06:12:01;;;;;;;11.73;5.33;;;;;;;15.05;100.00;103843.41;5093030;28;20256;-51
2021/12/18 06:14:28;;;;;;;12.70;5.23;;;;;;;15.08;100.00;103853.00;5075018;28;20286;-51
2021/12/18 06:16:54;;;;;;;12.03;4.70;;;;;;;15.10;100.00;103850.19;5092846;28;20256;-51
2021/12/18 06:19:20;;;;;;;14.77;5.00;;;;;;;14.99;100.00;103840.47;5093287;28;20303;-52
2021/12/18 06:21:46;;;;;;;11.70;5.13;;;;;;;14.85;100.00;103847.22;5093186;28;20122;-52
2021/12/18 06:24:12;;;;;;;11.40;5.13;;;;;;;14.91;100.00;103852.00;5092905;28;20117;-52
2021/12/18 06:26:37;;;;;;;11.60;5.38;;;;;;;14.96;100.00;103846.16;5093095;28;20032;-53
2021/12/18 06:29:03;;;;;;;14.13;5.88;;;;;;;14.95;100.00;103853.38;5093822;28;20047;-48
2021/12/18 06:31:29;;;;;;;13.07;5.57;;;;;;;15.00;100.00;103856.50;5074968;28;20024;-51
2021/12/18 06:33:54;;;;;;;14.23;5.22;;;;;;;14.97;100.00;103856.75;5092996;28;20032;-54
2021/12/18 06:36:20;;;;;;;12.67;4.70;;;;;;;14.93;100.00;103859.94;5092800;28;20036;-51
2021/12/18 06:38:45;;;;;;;13.47;5.03;;;;;;;14.92;100.00;103859.06;5077033;28;20272;-48
2021/12/18 06:41:11;;;;;;;11.60;4.97;;;;;;;14.94;100.00;103861.63;5078609;28;20413;-48
2021/12/18 06:43:37;;;;;;;11.07;4.47;;;;;;;14.96;100.00;103863.16;5096404;28;20610;-47
2021/12/18 06:46:02;;;;;;;10.43;4.57;;;;;;;14.90;100.00;103872.72;5078478;28;20354;-48
2021/12/18 06:48:28;;;;;;;12.02;4.78;;;;;;;14.81;100.00;103862.00;5079041;28;20469;-47
2021/12/18 06:50:53;;;;;;;12.63;4.50;;;;;;;14.79;100.00;103858.59;5096865;28;20032;-49
2021/12/18 06:53:19;;;;;;;9.50;4.05;;;;;;;14.86;100.00;103855.13;5096443;28;20260;-49
2021/12/18 06:55:45;;;;;;;9.80;4.03;;;;;;;14.89;100.00;103849.47;5078198;28;20032;-47
2021/12/18 06:58:10;;;;;;;8.80;3.92;;;;;;;14.86;100.00;103852.44;5096212;28;20348;-51
2021/12/18 07:00:36;;;;;;;11.37;4.43;;;;;;;14.84;100.00;103859.00;5096214;28;20035;-51
2021/12/18 07:03:02;;;;;;;8.93;4.03;;;;;;;14.82;100.00;103859.13;5096812;28;20457;-47
2021/12/18 07:05:27;;;;;;;10.57;5.50;;;;;;;14.81;100.00;103859.28;5078326;28;20060;-51
2021/12/18 07:07:53;;;;;;;14.13;5.20;;;;;;;14.79;100.00;103858.59;5096604;28;20132;-48
2021/12/18 07:10:19;;;;;;;13.90;4.50;;;;;;;14.69;100.00;103861.31;5096243;28;20036;-51
2021/12/18 07:12:45;;;;;;;9.25;4.03;;;;;;;14.77;100.00;103867.69;5096002;28;20040;-50
2021/12/18 07:15:11;;;;;;;9.50;3.63;;;;;;;14.72;100.00;103859.16;5078149;28;20028;-50
2021/12/18 07:17:38;;;;;;;14.07;4.30;;;;;;;14.65;100.00;103874.22;5095839;28;20044;-49
2021/12/18 07:20:05;;;;;;;9.50;4.10;;;;;;;14.64;100.00;103872.50;5095992;28;20327;-52
2021/12/18 07:22:31;;;;;;;7.17;2.97;;;;;;;14.66;100.00;103873.22;5095755;28;20517;-53
2021/12/18 07:24:56;;;;;;;9.82;3.88;;;;;;;14.63;100.00;103868.13;5077746;28;20264;-51
2021/12/18 07:27:22;;;;;;;7.60;2.97;;;;;;;14.43;100.00;103867.38;5077545;28;20035;-54
2021/12/18 07:29:48;;;;;;;8.37;3.13;;;;;;;14.38;100.00;103877.69;5061122;28;20059;-49
2021/12/18 07:32:14;;;;;;;12.07;3.55;;;;;;;14.36;100.00;103869.78;5096224;28;20264;-51
2021/12/18 07:34:39;;;;;;;9.13;3.53;;;;;;;14.33;100.00;103873.59;5095987;28;20100;-51
2021/12/18 07:37:05;;;;;;;30.60;4.38;;;;;;;14.36;100.00;103875.16;5077771;28;20422;-53
2021/12/18 07:39:30;;;;;;;11.70;4.20;;;;;;;14.39;100.00;103866.81;5095471;28;20032;-50
2021/12/18 07:41:56;;;;;;;8.23;3.20;;;;;;;14.34;100.00;103871.78;5095521;28;20028;-54
2021/12/18 07:44:21;;;;;;;8.93;3.77;;;;;;;14.34;100.00;103879.84;5095512;28;20082;-54
2021/12/18 07:46:47;;;;;;;9.20;3.33;;;;;;;14.29;100.00;103874.03;5095563;28;20579;-51
2021/12/18 07:49:13;;;;;;;7.57;3.33;;;;;;;14.35;100.00;103876.16;5094733;28;20342;-49
2021/12/18 07:51:38;;;;;;;5.82;2.92;;;;;;;14.35;100.00;103878.88;5094988;28;20745;-51
2021/12/18 07:54:06;;;;;;;5.75;2.42;;;;;;;14.27;100.00;103876.03;5095464;28;20520;-52
2021/12/18 07:56:33;;;;;;;6.05;2.40;;;;;;;14.28;100.00;103877.72;5077139;28;20123;-51
2021/12/18 07:58:59;;;;;;;7.00;2.40;;;;;;;14.22;100.00;103872.94;5095007;28;20024;-51
2021/12/18 08:01:24;;;;;;;4.97;2.08;;;;;;;14.25;100.00;103878.03;5077175;28;20047;-49
2021/12/18 08:03:50;;;;;;;7.60;2.47;;;;;;;14.25;100.00;103876.19;5076857;28;20067;-51
2021/12/18 08:06:16;;;;;;;5.68;2.25;;;;;;;14.26;100.00;103879.72;5095510;28;20032;-50
2021/12/18 08:08:42;;;;;;;4.63;2.33;;;;;;;14.23;100.00;103877.31;5095573;28;20073;-52
2021/12/18 08:11:08;;;;;;;5.40;2.13;;;;;;;14.26;100.00;103875.19;5076921;28;20063;-49
2021/12/18 08:13:33;;;;;;;4.75;2.10;;;;;;;14.24;100.00;103876.31;5094746;28;20071;-49
2021/12/18 08:15:59;;;;;;;8.13;2.42;;;;;;;14.28;100.00;103880.41;5095438;28;20032;-51
2021/12/18 08:18:24;;;;;;;4.03;2.27;;;;;;;14.27;100.00;103878.72;5094854;28;20392;-53
2021/12/18 08:20:50;;;;;;;6.07;2.60;;;;;;;14.27;100.00;103878.72;5094693;28;20257;-52
2021/12/18 08:23:15;;;;;;;8.27;2.33;;;;;;;14.12;100.00;103884.59;5095324;28;20042;-53
2021/12/18 08:25:41;;;;;;;6.70;3.27;;;;;;;14.27;100.00;103886.78;5094722;28;20036;-51
2021/12/18 08:28:07;;;;;;;7.37;2.30;;;;;;;14.31;100.00;103882.84;5094662;28;20036;-51
2021/12/18 08:30:36;;;;;;;7.80;2.83;;;;;;;14.34;100.00;103882.56;5076610;28;20261;-54
2021/12/18 08:33:02;;;;;;;6.00;2.70;;;;;;;14.65;100.00;103884.97;5094721;28;20047;-49
2021/12/18 08:35:29;;;;;;;7.15;2.45;;;;;;;14.45;100.00;103890.44;5094498;28;20257;-54
2021/12/18 08:37:57;;;;;;;10.03;4.27;;;;;;;14.39;100.00;103885.66;5094266;28;20028;-51
2021/12/18 08:40:24;;;;;;;6.82;2.63;;;;;;;14.56;100.00;103885.88;5076568;28;20346;-50
2021/12/18 08:42:50;;;;;;;7.40;2.53;;;;;;;14.55;100.00;103879.63;5094159;28;20032;-50
2021/12/18 08:45:16;;;;;;;6.18;2.63;;;;;;;14.53;100.00;103878.06;5094634;28;20048;-52
2021/12/18 08:47:42;;;;;;;6.45;3.00;;;;;;;14.35;100.00;103876.16;5060594;28;20048;-50
2021/12/18 08:50:10;;;;;;;4.80;2.33;;;;;;;14.44;100.00;103879.81;5076370;28;20024;-53
2021/12/18 08:52:36;;;;;;;5.20;2.25;;;;;;;14.36;100.00;103882.38;5076378;28;20043;-54
2021/12/18 08:55:03;;;;;;;4.97;2.38;;;;;;;14.41;100.00;103880.09;5094552;28;20036;-53
2021/12/18 08:57:29;;;;;;;3.95;1.83;;;;;;;14.45;100.00;103878.84;5094343;28;20036;-53
2021/12/18 08:59:55;;;;;;;3.92;2.00;;;;;;;14.29;100.00;103872.22;5094551;28;20084;-49
2021/12/18 09:02:20;;;;;;;4.72;2.10;;;;;;;14.37;100.00;103874.19;5094482;28;20036;-48
2021/12/18 09:04:48;;;;;;;5.20;2.17;;;;;;;14.40;100.00;103870.31;5094041;28;20043;-47
2021/12/18 09:07:14;;;;;;;3.70;1.83;;;;;;;14.55;100.00;103876.09;5094030;28;20036;-53
2021/12/18 09:09:39;;;;;;;6.05;2.10;;;;;;;14.59;100.00;103880.19;5093957;28;20264;-50
2021/12/18 09:12:06;;;;;;;5.10;1.93;;;;;;;14.45;100.00;103876.97;5094117;28;20044;-48
2021/12/18 09:14:31;;;;;;;4.57;2.10;;;;;;;14.54;100.00;103879.78;5094060;28;20577;-54
2021/12/18 09:16:57;;;;;;;6.73;1.87;;;;;;;14.62;100.00;103878.03;5093957;28;20355;-50
2021/12/18 09:19:22;;;;;;;2.45;1.38;;;;;;;14.67;100.00;103874.91;5094098;28;20280;-50
2021/12/18 09:21:49;;;;;;;4.10;1.90;;;;;;;14.65;100.00;103879.59;5093761;28;20036;-52
2021/12/18 09:24:14;;;;;;;6.03;2.75;;;;;;;14.69;100.00;103870.22;5093597;28;20267;-47
2021/12/18 09:26:39;;;;;;;3.97;2.33;;;;;;;14.76;100.00;103865.13;5093707;28;20432;-50
2021/12/18 09:29:05;;;;;;;5.53;2.63;;;;;;;14.68;100.00;103873.06;5093920;28;20028;-51
2021/12/18 09:31:30;;;;;;;8.75;2.90;;;;;;;14.65;100.00;103879.59;5093781;28;20477;-53
2021/12/18 09:33:56;;;;;;;10.63;3.07;;;;;;;14.65;100.00;103879.59;5093418;28;20040;-51
2021/12/18 09:36:21;;;;;;;7.53;3.20;;;;;;;14.53;100.00;103880.75;5093501;28;20131;-51
2021/12/18 09:38:47;;;;;;;7.57;2.47;;;;;;;14.53;100.00;103884.31;5093379;28;20020;-51
2021/12/18 09:41:14;;;;;;;5.90;2.90;;;;;;;14.65;100.00;103889.50;5093450;28;20815;-50
2021/12/18 09:43:40;;;;;;;6.80;2.70;;;;;;;14.39;100.00;103880.25;5075277;28;20280;-55
2021/12/18 09:46:09;;;;;;;7.72;2.38;;;;;;;14.49;100.00;103874.84;5093859;28;20067;-53
2021/12/18 09:48:36;;;;;;;7.03;2.80;;;;;;;14.55;100.00;103874.25;5093266;28;20032;-53
2021/12/18 09:51:09;;;;;;;5.70;2.23;;;;;;;14.54;100.00;103874.41;5058866;28;20268;-50
2021/12/18 09:53:36;;;;;;;5.47;2.27;;;;;;;14.27;100.00;103876.03;5076120;28;20257;-49
2021/12/18 09:56:04;;;;;;;4.35;2.42;;;;;;;14.32;100.00;103874.59;5093757;28;20290;-48
2021/12/18 09:58:29;;;;;;;4.97;2.30;;;;;;;14.51;100.00;103875.53;5093166;28;20027;-53
2021/12/18 10:00:55;;;;;;;4.33;2.37;;;;;;;14.55;100.00;103873.41;5093114;28;20264;-51
2021/12/18 10:03:21;;;;;;;4.82;2.35;;;;;;;14.61;100.00;103873.66;5093129;28;20312;-51
2021/12/18 10:05:47;;;;;;;5.47;2.58;;;;;;;14.60;100.00;103869.25;5093463;28;20028;-52
2021/12/18 10:08:20;;;;;;;4.47;2.20;;;;;;;14.62;100.00;103879.91;5093365;28;20036;-52
2021/12/18 10:11:07;;;;;;;4.23;2.13;;;;;;;14.61;100.00;103879.03;5093563;28;20036;-52
2021/12/18 10:13:54;;;;;;;5.72;2.22;;;;;;;14.61;100.00;103868.25;5095463;28;20268;-50
2021/12/18 10:16:22;;;;;;;5.90;2.33;;;;;;;14.55;100.00;103871.56;5079124;28;20039;-51
2021/12/18 10:18:49;;;;;;;3.97;2.30;;;;;;;14.58;100.00;103867.72;5097635;28;20020;-51
2021/12/18 10:21:18;;;;;;;5.60;3.17;;;;;;;14.70;100.00;103855.75;5097377;28;20272;-48
2021/12/18 10:23:45;;;;;;;5.03;2.83;;;;;;;14.58;100.00;103862.34;5096762;28;20697;-48
2021/12/18 10:26:38;;;;;;;4.97;2.67;;;;;;;14.56;100.00;103857.09;5078934;28;20260;-50
2021/12/18 10:29:21;;;;;;;5.67;3.00;;;;;;;14.54;100.00;103851.00;5097316;28;20276;-50
2021/12/18 10:31:46;;;;;;;5.27;2.80;;;;;;;14.67;100.00;103850.66;5096878;28;20264;-52
2021/12/18 10:34:21;;;;;;;3.67;1.80;;;;;;;14.58;100.00;103854.25;5096889;28;20255;-50
2021/12/18 10:37:09;;;;;;;6.43;2.73;;;;;;;14.65;100.00;103852.66;5097348;28;20035;-51
2021/12/18 10:39:54;;;;;;;3.45;2.13;;;;;;;14.71;100.00;103852.09;5097065;28;20284;-54
2021/12/18 10:42:34;;;;;;;3.30;1.70;;;;;;;14.71;100.00;103859.34;5097066;28;20123;-52
2021/12/18 10:45:34;;;;;;;6.07;2.57;;;;;;;14.65;100.00;103855.34;5096840;28;20308;-50
2021/12/18 10:48:03;;;;;;;3.80;1.90;;;;;;;14.79;100.00;103859.44;5092127;28;20277;-49
2021/12/18 10:50:51;;;;;;;4.23;2.30;;;;;;;14.77;100.00;103853.34;5096875;28;20272;-51
2021/12/18 10:53:24;;;;;;;5.27;2.43;;;;;;;14.49;100.00;103859.53;5097295;28;20335;-49
2021/12/18 10:55:49;;;;;;;5.27;2.60;;;;;;;14.35;100.00;103854.63;5097133;28;20260;-52
2021/12/18 10:58:27;;;;;;;5.10;2.30;;;;;;;14.57;100.00;103844.50;5096659;28;20296;-56
2021/12/18 11:00:58;;;;;;;6.63;2.27;;;;;;;14.37;100.00;103855.34;5097021;28;20032;-52
2021/12/18 11:03:28;;;;;;;7.07;3.07;;;;;;;14.33;100.00;103846.69;5096997;28;20257;-56
2021/12/18 11:06:02;;;;;;;5.83;2.90;;;;;;;14.47;100.00;103844.53;5096883;28;20296;-51
2021/12/18 11:08:28;;;;;;;7.97;3.87;;;;;;;14.66;100.00;103843.59;5096210;28;20606;-53
2021/12/18 11:13:50;;;;;;;6.87;3.57;;;;;;;14.54;100.00;103847.47;5096987;28;20115;-49
2021/12/18 11:16:17;;;;;;;6.25;3.45;;;;;;;14.61;100.00;103849.41;5078164;28;20267;-48
2021/12/18 11:18:43;;;;;;;;;;;;;;;14.56;100.00;103842.78;5078751;28;20044;-51
2021/12/18 11:21:09;;;;;;;10.10;4.77;;;;;;;14.56;100.00;103843.63;5096772;28;19912;-50
2021/12/18 11:23:50;;;;;;;6.82;4.03;;;;;;;14.61;100.00;103840.50;5096437;28;20329;-51
2021/12/18 11:26:18;;;;;;;9.32;4.57;;;;;;;14.59;100.00;103842.50;5077189;28;20046;-53
2021/12/18 11:28:48;;;;;;;7.80;4.63;;;;;;;14.52;100.00;103836.84;5060823;28;20115;-51
2021/12/18 11:31:14;;;;;;;8.30;5.23;;;;;;;14.60;100.00;103844.19;5095337;28;20269;-50
2021/12/18 11:33:39;;;;;;;10.15;5.28;;;;;;;14.66;100.00;103838.19;5095695;28;20257;-51
2021/12/18 11:36:06;;;;;;;8.50;4.63;;;;;;;14.58;100.00;103833.56;5095882;28;20094;-49
2021/12/18 11:38:34;;;;;;;11.52;6.18;;;;;;;14.61;100.00;103829.72;5095625;28;20028;-50
2021/12/18 11:41:00;;;;;;;7.93;4.57;;;;;;;14.60;100.00;103831.56;5095910;28;20028;-50
2021/12/18 11:43:42;;;;;;;7.68;4.35;;;;;;;14.46;100.00;103827.50;5077259;28;20291;-51
2021/12/18 11:46:33;;;;;;;5.40;2.93;;;;;;;14.55;100.00;103828.47;5095522;28;20042;-51
2021/12/18 11:49:03;;;;;;;9.73;3.00;;;;;;;14.67;100.00;103823.72;5095687;28;20271;-52
2021/12/18 11:51:30;;;;;;;4.80;2.90;;;;;;;14.64;100.00;103815.94;5096441;28;20424;-51
2021/12/18 11:53:57;;;;;;;6.37;3.10;;;;;;;14.59;100.00;103810.19;5095224;28;20251;-48
2021/12/18 11:56:24;;;;;;;5.30;2.97;;;;;;;14.51;100.00;103818.13;5095561;28;20288;-52
2021/12/18 11:58:50;;;;;;;4.47;2.83;;;;;;;14.51;100.00;103813.59;5095592;28;20276;-54